sensor_id;sensor_type;location;lat;lon;timestamp;P1;durP1;ratioP1;P2;durP2;ratioP2
21432;SDS011;18592;49.708;10.900;2024-03-22T00:01:41;3.78;;;3.28;;
21432;SDS011;18592;49.708;10.900;2024-03-22T00:03:41;3.92;;;3.42;;
21432;SDS011;18592;49.708;10.900;2024-03-22T00:05:42;3.50;;;3.00;;
21432;SDS011;18592;49.708;10.900;2024-03-22T00:07:43;3.35;;;3.05;;
21432;SDS011;18592;49.708;10.900;2024-03-22T00:09:54;3.78;;;3.30;;
21432;SDS011;18592;49.708;10.900;2024-03-22T00:11:54;4.07;;;3.40;;
21432;SDS011;18592;49.708;10.900;2024-03-22T00:14:07;4.82;;;3.40;;
21432;SDS011;18592;49.708;10.900;2024-03-22T00:16:08;6.97;;;3.65;;
21432;SDS011;18592;49.708;10.900;2024-03-22T00:18:08;6.65;;;3.75;;
21432;SDS011;18592;49.708;10.900;2024-03-22T00:20:09;3.63;;;3.10;;
21432;SDS011;18592;49.708;10.900;2024-03-22T00:22:09;4.47;;;3.75;;
21432;SDS011;18592;49.708;10.900;2024-03-22T00:24:21;6.13;;;3.30;;
21432;SDS011;18592;49.708;10.900;2024-03-22T00:26:21;3.90;;;3.15;;
21432;SDS011;18592;49.708;10.900;2024-03-22T00:28:22;4.03;;;3.28;;
21432;SDS011;18592;49.708;10.900;2024-03-22T00:30:22;4.70;;;3.65;;
21432;SDS011;18592;49.708;10.900;2024-03-22T00:32:23;3.88;;;3.13;;
21432;SDS011;18592;49.708;10.900;2024-03-22T00:34:23;4.00;;;3.22;;
21432;SDS011;18592;49.708;10.900;2024-03-22T00:36:23;4.18;;;3.50;;
21432;SDS011;18592;49.708;10.900;2024-03-22T00:38:24;4.95;;;3.42;;
21432;SDS011;18592;49.708;10.900;2024-03-22T00:40:24;3.92;;;3.28;;
21432;SDS011;18592;49.708;10.900;2024-03-22T00:42:25;5.47;;;3.33;;
21432;SDS011;18592;49.708;10.900;2024-03-22T00:44:25;4.22;;;3.10;;
21432;SDS011;18592;49.708;10.900;2024-03-22T00:46:25;4.28;;;3.30;;
21432;SDS011;18592;49.708;10.900;2024-03-22T00:48:26;3.78;;;3.33;;
21432;SDS011;18592;49.708;10.900;2024-03-22T00:50:26;3.78;;;3.38;;
21432;SDS011;18592;49.708;10.900;2024-03-22T00:52:27;5.07;;;3.47;;
21432;SDS011;18592;49.708;10.900;2024-03-22T00:54:28;3.60;;;3.30;;
21432;SDS011;18592;49.708;10.900;2024-03-22T00:56:28;5.57;;;3.80;;
21432;SDS011;18592;49.708;10.900;2024-03-22T00:58:29;5.13;;;3.63;;
21432;SDS011;18592;49.708;10.900;2024-03-22T01:00:29;4.53;;;3.50;;
21432;SDS011;18592;49.708;10.900;2024-03-22T01:02:30;5.47;;;3.47;;
21432;SDS011;18592;49.708;10.900;2024-03-22T01:04:30;5.15;;;3.67;;
21432;SDS011;18592;49.708;10.900;2024-03-22T01:06:30;4.38;;;3.53;;
21432;SDS011;18592;49.708;10.900;2024-03-22T01:08:31;4.20;;;3.45;;
21432;SDS011;18592;49.708;10.900;2024-03-22T01:10:32;4.35;;;3.63;;
21432;SDS011;18592;49.708;10.900;2024-03-22T01:12:33;4.13;;;3.38;;
21432;SDS011;18592;49.708;10.900;2024-03-22T01:14:33;4.07;;;3.30;;
21432;SDS011;18592;49.708;10.900;2024-03-22T01:16:34;3.65;;;3.05;;
21432;SDS011;18592;49.708;10.900;2024-03-22T01:18:34;5.18;;;3.42;;
21432;SDS011;18592;49.708;10.900;2024-03-22T01:20:34;4.18;;;3.28;;
21432;SDS011;18592;49.708;10.900;2024-03-22T01:22:48;5.60;;;3.42;;
21432;SDS011;18592;49.708;10.900;2024-03-22T01:24:49;3.60;;;3.10;;
21432;SDS011;18592;49.708;10.900;2024-03-22T01:27:05;3.33;;;3.03;;
21432;SDS011;18592;49.708;10.900;2024-03-22T01:29:05;4.38;;;3.30;;
21432;SDS011;18592;49.708;10.900;2024-03-22T01:31:05;5.30;;;3.85;;
21432;SDS011;18592;49.708;10.900;2024-03-22T01:33:06;4.05;;;3.58;;
21432;SDS011;18592;49.708;10.900;2024-03-22T01:35:06;4.82;;;3.55;;
21432;SDS011;18592;49.708;10.900;2024-03-22T01:37:08;4.53;;;4.00;;
21432;SDS011;18592;49.708;10.900;2024-03-22T01:39:08;4.88;;;3.50;;
21432;SDS011;18592;49.708;10.900;2024-03-22T01:41:08;5.13;;;3.28;;
21432;SDS011;18592;49.708;10.900;2024-03-22T01:43:09;3.50;;;3.20;;
21432;SDS011;18592;49.708;10.900;2024-03-22T01:45:11;4.00;;;3.30;;
21432;SDS011;18592;49.708;10.900;2024-03-22T01:47:27;4.15;;;3.40;;
21432;SDS011;18592;49.708;10.900;2024-03-22T01:49:27;4.35;;;3.60;;
21432;SDS011;18592;49.708;10.900;2024-03-22T01:51:28;3.53;;;3.20;;
21432;SDS011;18592;49.708;10.900;2024-03-22T01:53:29;4.22;;;3.53;;
21432;SDS011;18592;49.708;10.900;2024-03-22T01:55:29;5.45;;;3.70;;
21432;SDS011;18592;49.708;10.900;2024-03-22T01:57:30;5.55;;;3.50;;
21432;SDS011;18592;49.708;10.900;2024-03-22T01:59:32;3.55;;;3.22;;
21432;SDS011;18592;49.708;10.900;2024-03-22T02:01:33;3.47;;;3.15;;
21432;SDS011;18592;49.708;10.900;2024-03-22T02:03:35;3.50;;;3.10;;
21432;SDS011;18592;49.708;10.900;2024-03-22T02:05:35;4.85;;;3.67;;
21432;SDS011;18592;49.708;10.900;2024-03-22T02:07:35;4.18;;;3.40;;
21432;SDS011;18592;49.708;10.900;2024-03-22T02:09:38;8.60;;;3.92;;
21432;SDS011;18592;49.708;10.900;2024-03-22T02:11:38;4.68;;;3.20;;
21432;SDS011;18592;49.708;10.900;2024-03-22T02:13:59;4.95;;;3.17;;
21432;SDS011;18592;49.708;10.900;2024-03-22T02:16:03;3.58;;;3.00;;
21432;SDS011;18592;49.708;10.900;2024-03-22T02:18:04;4.95;;;3.33;;
21432;SDS011;18592;49.708;10.900;2024-03-22T02:20:05;3.65;;;2.95;;
21432;SDS011;18592;49.708;10.900;2024-03-22T02:22:07;5.03;;;3.30;;
21432;SDS011;18592;49.708;10.900;2024-03-22T02:24:08;4.45;;;3.58;;
21432;SDS011;18592;49.708;10.900;2024-03-22T02:26:08;3.80;;;3.38;;
21432;SDS011;18592;49.708;10.900;2024-03-22T02:28:08;3.20;;;2.90;;
21432;SDS011;18592;49.708;10.900;2024-03-22T02:30:09;3.13;;;2.83;;
21432;SDS011;18592;49.708;10.900;2024-03-22T02:32:09;3.38;;;2.58;;
21432;SDS011;18592;49.708;10.900;2024-03-22T02:34:12;3.03;;;2.70;;
21432;SDS011;18592;49.708;10.900;2024-03-22T02:36:13;2.80;;;2.60;;
21432;SDS011;18592;49.708;10.900;2024-03-22T02:38:13;2.65;;;2.45;;
21432;SDS011;18592;49.708;10.900;2024-03-22T02:40:24;3.22;;;2.92;;
21432;SDS011;18592;49.708;10.900;2024-03-22T02:42:24;2.75;;;2.55;;
21432;SDS011;18592;49.708;10.900;2024-03-22T02:44:24;3.10;;;2.80;;
21432;SDS011;18592;49.708;10.900;2024-03-22T02:46:25;3.67;;;2.90;;
21432;SDS011;18592;49.708;10.900;2024-03-22T02:48:25;3.22;;;2.92;;
21432;SDS011;18592;49.708;10.900;2024-03-22T02:50:26;3.13;;;2.83;;
21432;SDS011;18592;49.708;10.900;2024-03-22T02:52:26;3.10;;;2.80;;
21432;SDS011;18592;49.708;10.900;2024-03-22T02:54:26;3.40;;;2.85;;
21432;SDS011;18592;49.708;10.900;2024-03-22T02:56:27;3.00;;;2.70;;
21432;SDS011;18592;49.708;10.900;2024-03-22T02:58:40;3.65;;;3.30;;
21432;SDS011;18592;49.708;10.900;2024-03-22T03:00:40;3.30;;;3.00;;
21432;SDS011;18592;49.708;10.900;2024-03-22T03:02:41;3.80;;;2.90;;
21432;SDS011;18592;49.708;10.900;2024-03-22T03:04:41;3.88;;;3.03;;
21432;SDS011;18592;49.708;10.900;2024-03-22T03:06:41;2.58;;;2.38;;
21432;SDS011;18592;49.708;10.900;2024-03-22T03:08:42;3.33;;;2.63;;
21432;SDS011;18592;49.708;10.900;2024-03-22T03:10:42;3.58;;;3.00;;
21432;SDS011;18592;49.708;10.900;2024-03-22T03:12:43;3.08;;;2.70;;
21432;SDS011;18592;49.708;10.900;2024-03-22T03:14:43;3.03;;;2.83;;
21432;SDS011;18592;49.708;10.900;2024-03-22T03:16:43;3.25;;;2.95;;
21432;SDS011;18592;49.708;10.900;2024-03-22T03:18:44;3.65;;;3.30;;
21432;SDS011;18592;49.708;10.900;2024-03-22T03:20:44;3.42;;;3.13;;
21432;SDS011;18592;49.708;10.900;2024-03-22T03:22:44;3.13;;;2.83;;
21432;SDS011;18592;49.708;10.900;2024-03-22T03:24:45;2.88;;;2.42;;
21432;SDS011;18592;49.708;10.900;2024-03-22T03:26:45;2.95;;;2.63;;
21432;SDS011;18592;49.708;10.900;2024-03-22T03:28:45;4.30;;;2.80;;
21432;SDS011;18592;49.708;10.900;2024-03-22T03:30:46;2.58;;;2.38;;
21432;SDS011;18592;49.708;10.900;2024-03-22T03:32:53;2.58;;;2.38;;
21432;SDS011;18592;49.708;10.900;2024-03-22T03:34:53;2.40;;;2.20;;
21432;SDS011;18592;49.708;10.900;2024-03-22T03:36:54;2.53;;;2.33;;
21432;SDS011;18592;49.708;10.900;2024-03-22T03:38:54;2.60;;;2.40;;
21432;SDS011;18592;49.708;10.900;2024-03-22T03:40:55;2.60;;;2.30;;
21432;SDS011;18592;49.708;10.900;2024-03-22T03:42:55;2.53;;;2.20;;
21432;SDS011;18592;49.708;10.900;2024-03-22T03:44:56;2.75;;;2.25;;
21432;SDS011;18592;49.708;10.900;2024-03-22T03:46:56;2.47;;;2.28;;
21432;SDS011;18592;49.708;10.900;2024-03-22T03:48:56;2.75;;;2.38;;
21432;SDS011;18592;49.708;10.900;2024-03-22T03:50:57;2.30;;;2.10;;
21432;SDS011;18592;49.708;10.900;2024-03-22T03:53:03;3.15;;;2.60;;
21432;SDS011;18592;49.708;10.900;2024-03-22T03:55:03;3.00;;;2.75;;
21432;SDS011;18592;49.708;10.900;2024-03-22T03:57:04;2.90;;;2.60;;
21432;SDS011;18592;49.708;10.900;2024-03-22T03:59:04;2.60;;;2.40;;
21432;SDS011;18592;49.708;10.900;2024-03-22T04:01:08;2.70;;;2.50;;
21432;SDS011;18592;49.708;10.900;2024-03-22T04:03:09;2.60;;;2.40;;
21432;SDS011;18592;49.708;10.900;2024-03-22T04:05:09;2.42;;;2.22;;
21432;SDS011;18592;49.708;10.900;2024-03-22T04:07:09;3.45;;;2.45;;
21432;SDS011;18592;49.708;10.900;2024-03-22T04:09:10;2.58;;;2.38;;
21432;SDS011;18592;49.708;10.900;2024-03-22T04:11:10;2.65;;;2.45;;
21432;SDS011;18592;49.708;10.900;2024-03-22T04:13:11;2.60;;;2.40;;
21432;SDS011;18592;49.708;10.900;2024-03-22T04:15:12;2.38;;;2.13;;
21432;SDS011;18592;49.708;10.900;2024-03-22T04:17:12;2.53;;;2.33;;
21432;SDS011;18592;49.708;10.900;2024-03-22T04:19:12;2.95;;;2.22;;
21432;SDS011;18592;49.708;10.900;2024-03-22T04:21:13;3.05;;;2.53;;
21432;SDS011;18592;49.708;10.900;2024-03-22T04:23:13;2.97;;;2.60;;
21432;SDS011;18592;49.708;10.900;2024-03-22T04:25:13;2.97;;;2.55;;
21432;SDS011;18592;49.708;10.900;2024-03-22T04:27:14;2.45;;;2.25;;
21432;SDS011;18592;49.708;10.900;2024-03-22T04:29:14;2.80;;;2.60;;
21432;SDS011;18592;49.708;10.900;2024-03-22T04:31:14;4.60;;;2.65;;
21432;SDS011;18592;49.708;10.900;2024-03-22T04:33:15;2.83;;;2.53;;
21432;SDS011;18592;49.708;10.900;2024-03-22T04:35:16;3.30;;;3.00;;
21432;SDS011;18592;49.708;10.900;2024-03-22T04:37:16;2.90;;;2.70;;
21432;SDS011;18592;49.708;10.900;2024-03-22T04:39:16;3.10;;;2.70;;
21432;SDS011;18592;49.708;10.900;2024-03-22T04:41:17;3.22;;;2.97;;
21432;SDS011;18592;49.708;10.900;2024-03-22T04:43:17;3.90;;;3.60;;
21432;SDS011;18592;49.708;10.900;2024-03-22T04:45:18;3.63;;;3.22;;
21432;SDS011;18592;49.708;10.900;2024-03-22T04:47:18;4.10;;;3.28;;
21432;SDS011;18592;49.708;10.900;2024-03-22T04:49:18;3.85;;;3.50;;
21432;SDS011;18592;49.708;10.900;2024-03-22T04:51:19;3.75;;;3.30;;
21432;SDS011;18592;49.708;10.900;2024-03-22T04:53:20;3.78;;;3.38;;
21432;SDS011;18592;49.708;10.900;2024-03-22T04:55:21;3.42;;;3.10;;
21432;SDS011;18592;49.708;10.900;2024-03-22T04:57:21;4.47;;;2.75;;
21432;SDS011;18592;49.708;10.900;2024-03-22T04:59:22;3.50;;;2.60;;
21432;SDS011;18592;49.708;10.900;2024-03-22T05:01:22;3.08;;;2.78;;
21432;SDS011;18592;49.708;10.900;2024-03-22T05:03:23;2.88;;;2.58;;
21432;SDS011;18592;49.708;10.900;2024-03-22T05:05:24;4.07;;;2.90;;
21432;SDS011;18592;49.708;10.900;2024-03-22T05:07:24;3.25;;;2.70;;
21432;SDS011;18592;49.708;10.900;2024-03-22T05:09:24;3.10;;;2.80;;
21432;SDS011;18592;49.708;10.900;2024-03-22T05:11:25;5.40;;;3.40;;
21432;SDS011;18592;49.708;10.900;2024-03-22T05:13:26;3.78;;;3.13;;
21432;SDS011;18592;49.708;10.900;2024-03-22T05:15:26;6.80;;;3.03;;
21432;SDS011;18592;49.708;10.900;2024-03-22T05:17:27;7.70;;;2.90;;
21432;SDS011;18592;49.708;10.900;2024-03-22T05:19:28;5.07;;;3.05;;
21432;SDS011;18592;49.708;10.900;2024-03-22T05:21:29;3.67;;;2.97;;
21432;SDS011;18592;49.708;10.900;2024-03-22T05:23:29;3.75;;;2.78;;
21432;SDS011;18592;49.708;10.900;2024-03-22T05:25:29;3.00;;;2.38;;
21432;SDS011;18592;49.708;10.900;2024-03-22T05:27:33;3.95;;;3.17;;
21432;SDS011;18592;49.708;10.900;2024-03-22T05:29:34;4.47;;;2.88;;
21432;SDS011;18592;49.708;10.900;2024-03-22T05:31:36;4.32;;;3.50;;
21432;SDS011;18592;49.708;10.900;2024-03-22T05:33:47;7.10;;;3.90;;
21432;SDS011;18592;49.708;10.900;2024-03-22T05:35:47;10.93;;;5.38;;
21432;SDS011;18592;49.708;10.900;2024-03-22T05:37:47;9.65;;;5.93;;
21432;SDS011;18592;49.708;10.900;2024-03-22T05:39:49;7.63;;;5.47;;
21432;SDS011;18592;49.708;10.900;2024-03-22T05:42:01;9.20;;;5.63;;
21432;SDS011;18592;49.708;10.900;2024-03-22T05:44:01;10.43;;;6.65;;
21432;SDS011;18592;49.708;10.900;2024-03-22T05:46:03;8.68;;;5.57;;
21432;SDS011;18592;49.708;10.900;2024-03-22T05:48:03;8.15;;;4.40;;
21432;SDS011;18592;49.708;10.900;2024-03-22T05:50:04;6.43;;;4.70;;
21432;SDS011;18592;49.708;10.900;2024-03-22T05:52:08;6.80;;;4.25;;
21432;SDS011;18592;49.708;10.900;2024-03-22T05:54:08;5.57;;;4.45;;
21432;SDS011;18592;49.708;10.900;2024-03-22T05:56:09;5.53;;;4.60;;
21432;SDS011;18592;49.708;10.900;2024-03-22T05:58:10;5.95;;;4.38;;
21432;SDS011;18592;49.708;10.900;2024-03-22T06:00:10;6.60;;;4.90;;
21432;SDS011;18592;49.708;10.900;2024-03-22T06:02:21;5.82;;;5.13;;
21432;SDS011;18592;49.708;10.900;2024-03-22T06:04:36;4.68;;;4.18;;
21432;SDS011;18592;49.708;10.900;2024-03-22T06:06:36;4.53;;;3.85;;
21432;SDS011;18592;49.708;10.900;2024-03-22T06:08:38;3.80;;;3.45;;
21432;SDS011;18592;49.708;10.900;2024-03-22T06:10:39;4.78;;;3.13;;
21432;SDS011;18592;49.708;10.900;2024-03-22T06:12:39;3.83;;;3.45;;
21432;SDS011;18592;49.708;10.900;2024-03-22T06:14:41;3.75;;;3.38;;
21432;SDS011;18592;49.708;10.900;2024-03-22T06:16:49;6.68;;;3.80;;
21432;SDS011;18592;49.708;10.900;2024-03-22T06:19:17;4.18;;;3.75;;
21432;SDS011;18592;49.708;10.900;2024-03-22T06:21:24;4.10;;;3.70;;
21432;SDS011;18592;49.708;10.900;2024-03-22T06:23:52;4.35;;;3.88;;
21432;SDS011;18592;49.708;10.900;2024-03-22T06:25:59;4.20;;;3.80;;
21432;SDS011;18592;49.708;10.900;2024-03-22T06:28:28;4.45;;;3.75;;
21432;SDS011;18592;49.708;10.900;2024-03-22T06:30:58;4.55;;;4.05;;
21432;SDS011;18592;49.708;10.900;2024-03-22T06:33:16;4.45;;;3.90;;
21432;SDS011;18592;49.708;10.900;2024-03-22T06:35:29;7.05;;;5.15;;
21432;SDS011;18592;49.708;10.900;2024-03-22T06:37:43;8.10;;;5.63;;
21432;SDS011;18592;49.708;10.900;2024-03-22T06:40:05;7.40;;;5.75;;
21432;SDS011;18592;49.708;10.900;2024-03-22T06:42:19;9.07;;;6.55;;
21432;SDS011;18592;49.708;10.900;2024-03-22T06:44:41;10.20;;;6.05;;
21432;SDS011;18592;49.708;10.900;2024-03-22T06:46:54;9.55;;;6.55;;
21432;SDS011;18592;49.708;10.900;2024-03-22T06:49:08;7.93;;;6.35;;
21432;SDS011;18592;49.708;10.900;2024-03-22T06:51:15;8.27;;;6.03;;
21432;SDS011;18592;49.708;10.900;2024-03-22T06:53:15;8.07;;;6.18;;
21432;SDS011;18592;49.708;10.900;2024-03-22T06:55:16;6.60;;;5.63;;
21432;SDS011;18592;49.708;10.900;2024-03-22T06:57:16;11.52;;;7.00;;
21432;SDS011;18592;49.708;10.900;2024-03-22T06:59:16;7.50;;;6.45;;
21432;SDS011;18592;49.708;10.900;2024-03-22T07:01:17;7.82;;;6.40;;
21432;SDS011;18592;49.708;10.900;2024-03-22T07:03:17;7.72;;;6.47;;
21432;SDS011;18592;49.708;10.900;2024-03-22T07:05:18;7.57;;;6.75;;
21432;SDS011;18592;49.708;10.900;2024-03-22T07:07:18;8.15;;;6.88;;
21432;SDS011;18592;49.708;10.900;2024-03-22T07:09:19;8.35;;;6.80;;
21432;SDS011;18592;49.708;10.900;2024-03-22T07:11:48;7.65;;;6.30;;
21432;SDS011;18592;49.708;10.900;2024-03-22T07:13:55;9.32;;;7.35;;
21432;SDS011;18592;49.708;10.900;2024-03-22T07:16:23;8.48;;;6.65;;
21432;SDS011;18592;49.708;10.900;2024-03-22T07:18:31;10.57;;;6.93;;
21432;SDS011;18592;49.708;10.900;2024-03-22T07:20:58;9.48;;;7.35;;
21432;SDS011;18592;49.708;10.900;2024-03-22T07:23:08;9.88;;;7.28;;
21432;SDS011;18592;49.708;10.900;2024-03-22T07:25:35;10.70;;;7.85;;
21432;SDS011;18592;49.708;10.900;2024-03-22T07:27:42;9.27;;;7.47;;
21432;SDS011;18592;49.708;10.900;2024-03-22T07:30:10;10.35;;;8.02;;
21432;SDS011;18592;49.708;10.900;2024-03-22T07:32:18;10.95;;;8.38;;
21432;SDS011;18592;49.708;10.900;2024-03-22T07:34:46;11.93;;;8.32;;
21432;SDS011;18592;49.708;10.900;2024-03-22T07:36:53;10.45;;;8.10;;
21432;SDS011;18592;49.708;10.900;2024-03-22T07:39:20;12.23;;;8.50;;
21432;SDS011;18592;49.708;10.900;2024-03-22T07:41:35;9.80;;;8.57;;
21432;SDS011;18592;49.708;10.900;2024-03-22T07:43:55;13.30;;;9.90;;
21432;SDS011;18592;49.708;10.900;2024-03-22T07:46:03;11.30;;;9.32;;
21432;SDS011;18592;49.708;10.900;2024-03-22T07:48:30;12.95;;;9.70;;
21432;SDS011;18592;49.708;10.900;2024-03-22T07:50:45;11.13;;;8.60;;
21432;SDS011;18592;49.708;10.900;2024-03-22T07:53:05;12.32;;;9.55;;
21432;SDS011;18592;49.708;10.900;2024-03-22T07:55:20;12.85;;;9.85;;
21432;SDS011;18592;49.708;10.900;2024-03-22T07:57:40;12.93;;;10.07;;
21432;SDS011;18592;49.708;10.900;2024-03-22T07:59:55;15.25;;;10.20;;
21432;SDS011;18592;49.708;10.900;2024-03-22T08:02:23;12.88;;;10.10;;
21432;SDS011;18592;49.708;10.900;2024-03-22T08:04:38;15.18;;;10.48;;
21432;SDS011;18592;49.708;10.900;2024-03-22T08:06:58;12.80;;;10.18;;
21432;SDS011;18592;49.708;10.900;2024-03-22T08:09:13;13.88;;;9.88;;
21432;SDS011;18592;49.708;10.900;2024-03-22T08:11:33;14.82;;;10.70;;
21432;SDS011;18592;49.708;10.900;2024-03-22T08:13:48;13.80;;;9.93;;
21432;SDS011;18592;49.708;10.900;2024-03-22T08:16:14;12.68;;;10.00;;
21432;SDS011;18592;49.708;10.900;2024-03-22T08:18:29;12.52;;;9.93;;
21432;SDS011;18592;49.708;10.900;2024-03-22T08:20:49;12.25;;;9.55;;
21432;SDS011;18592;49.708;10.900;2024-03-22T08:23:04;12.55;;;10.15;;
21432;SDS011;18592;49.708;10.900;2024-03-22T08:25:24;12.77;;;10.45;;
21432;SDS011;18592;49.708;10.900;2024-03-22T08:27:54;14.55;;;10.00;;
21432;SDS011;18592;49.708;10.900;2024-03-22T08:30:14;12.90;;;10.15;;
21432;SDS011;18592;49.708;10.900;2024-03-22T08:32:29;14.00;;;10.25;;
21432;SDS011;18592;49.708;10.900;2024-03-22T08:34:56;14.55;;;10.55;;
21432;SDS011;18592;49.708;10.900;2024-03-22T08:37:04;14.70;;;10.77;;
21432;SDS011;18592;49.708;10.900;2024-03-22T08:39:31;13.32;;;10.35;;
21432;SDS011;18592;49.708;10.900;2024-03-22T08:41:40;11.93;;;9.80;;
21432;SDS011;18592;49.708;10.900;2024-03-22T08:44:07;12.90;;;9.68;;
21432;SDS011;18592;49.708;10.900;2024-03-22T08:46:15;11.68;;;9.52;;
21432;SDS011;18592;49.708;10.900;2024-03-22T08:48:43;13.18;;;10.68;;
21432;SDS011;18592;49.708;10.900;2024-03-22T08:50:53;13.27;;;10.55;;
21432;SDS011;18592;49.708;10.900;2024-03-22T08:53:23;13.25;;;10.18;;
21432;SDS011;18592;49.708;10.900;2024-03-22T08:55:31;12.38;;;10.10;;
21432;SDS011;18592;49.708;10.900;2024-03-22T08:57:58;12.80;;;10.45;;
21432;SDS011;18592;49.708;10.900;2024-03-22T09:00:06;11.90;;;10.20;;
21432;SDS011;18592;49.708;10.900;2024-03-22T09:02:33;13.35;;;10.32;;
21432;SDS011;18592;49.708;10.900;2024-03-22T09:04:41;13.40;;;11.07;;
21432;SDS011;18592;49.708;10.900;2024-03-22T09:07:08;12.88;;;10.70;;
21432;SDS011;18592;49.708;10.900;2024-03-22T09:09:16;13.05;;;10.52;;
21432;SDS011;18592;49.708;10.900;2024-03-22T09:11:43;13.77;;;10.68;;
21432;SDS011;18592;49.708;10.900;2024-03-22T09:13:58;12.75;;;10.02;;
21432;SDS011;18592;49.708;10.900;2024-03-22T09:16:11;14.65;;;11.60;;
21432;SDS011;18592;49.708;10.900;2024-03-22T09:18:19;12.75;;;10.95;;
21432;SDS011;18592;49.708;10.900;2024-03-22T09:20:46;12.43;;;10.52;;
21432;SDS011;18592;49.708;10.900;2024-03-22T09:23:02;13.32;;;10.25;;
21432;SDS011;18592;49.708;10.900;2024-03-22T09:25:26;13.10;;;10.35;;
21432;SDS011;18592;49.708;10.900;2024-03-22T09:27:41;13.35;;;11.18;;
21432;SDS011;18592;49.708;10.900;2024-03-22T09:30:02;14.25;;;11.32;;
21432;SDS011;18592;49.708;10.900;2024-03-22T09:32:18;12.65;;;10.30;;
21432;SDS011;18592;49.708;10.900;2024-03-22T09:34:39;13.82;;;10.40;;
21432;SDS011;18592;49.708;10.900;2024-03-22T09:36:54;11.93;;;10.27;;
21432;SDS011;18592;49.708;10.900;2024-03-22T09:39:15;11.40;;;9.45;;
21432;SDS011;18592;49.708;10.900;2024-03-22T09:41:29;11.63;;;9.65;;
21432;SDS011;18592;49.708;10.900;2024-03-22T09:43:52;13.13;;;10.55;;
21432;SDS011;18592;49.708;10.900;2024-03-22T09:46:06;13.65;;;10.95;;
21432;SDS011;18592;49.708;10.900;2024-03-22T09:48:27;12.90;;;10.90;;
21432;SDS011;18592;49.708;10.900;2024-03-22T09:50:42;11.30;;;9.90;;
21432;SDS011;18592;49.708;10.900;2024-03-22T09:53:03;17.02;;;12.80;;
21432;SDS011;18592;49.708;10.900;2024-03-22T09:55:26;18.77;;;12.60;;
21432;SDS011;18592;49.708;10.900;2024-03-22T09:57:55;54.60;;;23.85;;
21432;SDS011;18592;49.708;10.900;2024-03-22T10:00:20;80.50;;;33.47;;
21432;SDS011;18592;49.708;10.900;2024-03-22T10:02:41;75.65;;;34.63;;
21432;SDS011;18592;49.708;10.900;2024-03-22T10:04:56;85.57;;;35.63;;
21432;SDS011;18592;49.708;10.900;2024-03-22T10:07:17;79.47;;;30.85;;
21432;SDS011;18592;49.708;10.900;2024-03-22T10:09:31;47.00;;;20.85;;
21432;SDS011;18592;49.708;10.900;2024-03-22T10:11:53;33.13;;;17.50;;
21432;SDS011;18592;49.708;10.900;2024-03-22T10:14:15;23.10;;;14.45;;
21432;SDS011;18592;49.708;10.900;2024-03-22T10:16:41;20.92;;;12.90;;
21432;SDS011;18592;49.708;10.900;2024-03-22T10:18:55;16.23;;;10.98;;
21432;SDS011;18592;49.708;10.900;2024-03-22T10:21:19;11.23;;;9.70;;
21432;SDS011;18592;49.708;10.900;2024-03-22T10:23:33;9.15;;;7.95;;
21432;SDS011;18592;49.708;10.900;2024-03-22T10:25:54;11.50;;;9.27;;
21432;SDS011;18592;49.708;10.900;2024-03-22T10:28:09;11.35;;;8.30;;
21432;SDS011;18592;49.708;10.900;2024-03-22T10:30:30;9.52;;;7.57;;
21432;SDS011;18592;49.708;10.900;2024-03-22T10:32:44;10.10;;;7.38;;
21432;SDS011;18592;49.708;10.900;2024-03-22T10:35:05;8.63;;;7.13;;
21432;SDS011;18592;49.708;10.900;2024-03-22T10:37:35;13.73;;;8.70;;
21432;SDS011;18592;49.708;10.900;2024-03-22T10:39:56;29.25;;;9.25;;
21432;SDS011;18592;49.708;10.900;2024-03-22T10:42:12;38.00;;;9.95;;
21432;SDS011;18592;49.708;10.900;2024-03-22T10:44:33;21.55;;;10.20;;
21432;SDS011;18592;49.708;10.900;2024-03-22T10:47:01;14.80;;;8.13;;
21432;SDS011;18592;49.708;10.900;2024-03-22T10:49:19;11.07;;;7.25;;
21432;SDS011;18592;49.708;10.900;2024-03-22T10:51:40;8.00;;;6.25;;
21432;SDS011;18592;49.708;10.900;2024-03-22T10:54:06;8.45;;;5.82;;
21432;SDS011;18592;49.708;10.900;2024-03-22T10:56:50;7.78;;;6.07;;
21432;SDS011;18592;49.708;10.900;2024-03-22T10:59:02;6.53;;;5.80;;
21432;SDS011;18592;49.708;10.900;2024-03-22T11:01:31;8.15;;;5.57;;
21432;SDS011;18592;49.708;10.900;2024-03-22T11:03:43;6.78;;;6.05;;
21432;SDS011;18592;49.708;10.900;2024-03-22T11:06:11;7.32;;;5.93;;
21432;SDS011;18592;49.708;10.900;2024-03-22T11:08:25;7.22;;;5.63;;
21432;SDS011;18592;49.708;10.900;2024-03-22T11:10:48;7.32;;;5.85;;
21432;SDS011;18592;49.708;10.900;2024-03-22T11:13:05;6.10;;;5.45;;
21432;SDS011;18592;49.708;10.900;2024-03-22T11:15:28;6.40;;;5.28;;
21432;SDS011;18592;49.708;10.900;2024-03-22T11:17:42;7.10;;;5.32;;
21432;SDS011;18592;49.708;10.900;2024-03-22T11:20:03;6.55;;;5.55;;
21432;SDS011;18592;49.708;10.900;2024-03-22T11:22:17;5.50;;;4.80;;
21432;SDS011;18592;49.708;10.900;2024-03-22T11:24:39;6.78;;;4.95;;
21432;SDS011;18592;49.708;10.900;2024-03-22T11:26:53;5.07;;;4.40;;
21432;SDS011;18592;49.708;10.900;2024-03-22T11:29:14;4.82;;;4.32;;
21432;SDS011;18592;49.708;10.900;2024-03-22T11:31:30;5.07;;;4.57;;
21432;SDS011;18592;49.708;10.900;2024-03-22T11:33:51;4.65;;;4.05;;
21432;SDS011;18592;49.708;10.900;2024-03-22T11:36:10;4.97;;;4.40;;
21432;SDS011;18592;49.708;10.900;2024-03-22T11:38:31;4.22;;;3.80;;
21432;SDS011;18592;49.708;10.900;2024-03-22T11:40:45;4.45;;;4.05;;
21432;SDS011;18592;49.708;10.900;2024-03-22T11:43:18;4.50;;;3.50;;
21432;SDS011;18592;49.708;10.900;2024-03-22T11:45:32;4.72;;;4.15;;
21432;SDS011;18592;49.708;10.900;2024-03-22T11:47:53;4.63;;;3.90;;
21432;SDS011;18592;49.708;10.900;2024-03-22T11:50:12;3.70;;;3.30;;
21432;SDS011;18592;49.708;10.900;2024-03-22T11:52:34;3.83;;;3.38;;
21432;SDS011;18592;49.708;10.900;2024-03-22T11:54:51;3.08;;;2.78;;
21432;SDS011;18592;49.708;10.900;2024-03-22T11:57:13;3.58;;;3.17;;
21432;SDS011;18592;49.708;10.900;2024-03-22T11:59:27;3.67;;;3.10;;
21432;SDS011;18592;49.708;10.900;2024-03-22T12:01:50;2.40;;;2.20;;
21432;SDS011;18592;49.708;10.900;2024-03-22T12:04:04;4.13;;;2.17;;
21432;SDS011;18592;49.708;10.900;2024-03-22T12:06:29;1.90;;;1.30;;
21432;SDS011;18592;49.708;10.900;2024-03-22T12:08:43;1.90;;;1.42;;
21432;SDS011;18592;49.708;10.900;2024-03-22T12:11:09;2.10;;;1.08;;
21432;SDS011;18592;49.708;10.900;2024-03-22T12:13:24;1.40;;;1.10;;
21432;SDS011;18592;49.708;10.900;2024-03-22T12:15:45;1.73;;;1.10;;
21432;SDS011;18592;49.708;10.900;2024-03-22T12:17:59;0.95;;;0.90;;
21432;SDS011;18592;49.708;10.900;2024-03-22T12:20:27;0.80;;;0.80;;
21432;SDS011;18592;49.708;10.900;2024-03-22T12:22:34;1.90;;;1.00;;
21432;SDS011;18592;49.708;10.900;2024-03-22T12:25:02;2.20;;;0.77;;
21432;SDS011;18592;49.708;10.900;2024-03-22T12:27:11;1.70;;;1.08;;
21432;SDS011;18592;49.708;10.900;2024-03-22T12:29:53;1.27;;;1.02;;
21432;SDS011;18592;49.708;10.900;2024-03-22T12:32:07;1.15;;;0.93;;
21432;SDS011;18592;49.708;10.900;2024-03-22T12:34:35;2.10;;;1.30;;
21432;SDS011;18592;49.708;10.900;2024-03-22T12:36:45;1.30;;;1.00;;
21432;SDS011;18592;49.708;10.900;2024-03-22T12:39:13;1.63;;;1.10;;
21432;SDS011;18592;49.708;10.900;2024-03-22T12:41:20;1.45;;;1.05;;
21432;SDS011;18592;49.708;10.900;2024-03-22T12:43:48;1.30;;;1.20;;